Time;durP1;ratioP1;P1;durP2;ratioP2;P2;SDS_P1;SDS_P2;PMS_P1;PMS_P2;Temp;Humidity;BMP_temperature;BMP_pressure;BME280_temperature;BME280_humidity;BME280_pressure;Samples;Min_cycle;Max_cycle;Signal;HPM_P1;HPM_P2
2023/06/18 00:01:51;;;;;;;;;;;;;;;31.68;14.59;100768.72;5091955;28;19919;-66
2023/06/18 00:04:16;;;;;;;;;;;;;;;31.62;14.62;100770.03;5095905;28;20398;-66
2023/06/18 00:06:41;;;;;;;;;;;;;;;31.56;15.09;100771.38;5099238;28;19916;-66
2023/06/18 00:09:07;;;;;;;;;;;;;;;31.53;14.79;100764.50;5091998;28;19920;-66
2023/06/18 00:11:33;;;;;;;;;;;;;;;31.45;15.03;100766.09;5083692;28;19920;-66
2023/06/18 00:13:58;;;;;;;;;;;;;;;31.50;15.20;100778.22;5091441;28;19919;-66
2023/06/18 00:16:23;;;;;;;;;;;;;;;31.44;15.06;100767.25;5092956;28;20299;-66
2023/06/18 00:18:49;;;;;;;;;;;;;;;31.45;15.63;100770.84;5090608;28;19958;-67
2023/06/18 00:21:14;;;;;;;;;;;;;;;31.40;15.58;100771.81;5101873;27;19912;-66
2023/06/18 00:23:39;;;;;;;;;;;;;;;31.35;15.84;100772.00;5091738;28;19923;-67
2023/06/18 00:26:05;;;;;;;;;;;;;;;31.24;16.00;100771.50;5106785;28;20284;-67
2023/06/18 00:28:31;;;;;;;;;;;;;;;31.22;15.71;100768.25;5113015;28;20345;-67
2023/06/18 00:30:56;;;;;;;;;;;;;;;31.22;16.04;100775.72;5102053;27;19919;-67
2023/06/18 00:33:22;;;;;;;;;;;;;;;31.18;15.77;100767.25;5093114;28;19916;-67
2023/06/18 00:35:48;;;;;;;;;;;;;;;31.18;16.32;100769.22;5092729;28;20365;-67
2023/06/18 00:38:16;;;;;;;;;;;;;;;31.14;16.39;100763.50;5104301;28;20037;-67
2023/06/18 00:40:42;;;;;;;;;;;;;;;31.14;16.06;100765.47;5113489;28;19911;-66
2023/06/18 00:43:08;;;;;;;;;;;;;;;31.15;15.90;100764.28;5109609;28;20006;-66
2023/06/18 00:45:34;;;;;;;;;;;;;;;31.17;16.18;100762.84;5093113;28;20367;-66
2023/06/18 00:48:00;;;;;;;;;;;;;;;31.22;15.54;100761.84;5091916;28;19916;-66
2023/06/18 00:50:26;;;;;;;;;;;;;;;31.15;15.61;100767.91;5090658;28;20238;-67
2023/06/18 00:52:59;;;;;;;;;;;;;;;31.18;15.65;100774.75;5091268;28;20554;-66
2023/06/18 00:55:26;;;;;;;;;;;;;;;31.16;16.00;100765.94;5094633;28;20338;-66
2023/06/18 00:57:59;;;;;;;;;;;;;;;31.20;16.09;100766.91;5112037;28;19915;-66
2023/06/18 01:00:25;;;;;;;;;;;;;;;31.16;15.69;100769.53;5112189;28;19938;-66
2023/06/18 01:02:53;;;;;;;;;;;;;;;31.16;16.17;100777.03;5096623;28;19951;-66
2023/06/18 01:05:19;;;;;;;;;;;;;;;31.15;15.79;100775.41;5092869;28;19957;-67
2023/06/18 01:07:47;;;;;;;;;;;;;;;31.12;15.91;100770.53;5089802;28;21382;-67
2023/06/18 01:10:14;;;;;;;;;;;;;;;31.07;15.98;100785.34;5092341;28;20006;-67
2023/06/18 01:12:39;;;;;;;;;;;;;;;31.08;16.06;100792.53;5091682;28;20341;-67
2023/06/18 01:15:05;;;;;;;;;;;;;;;31.05;15.72;100785.69;5089651;28;19935;-67
2023/06/18 01:17:35;;;;;;;;;;;;;;;31.03;16.40;100789.91;5091974;28;19995;-67
2023/06/18 01:20:10;;;;;;;;;;;;;;;31.05;16.23;100790.41;5089852;28;19924;-67
2023/06/18 01:22:51;;;;;;;;;;;;;;;31.04;16.27;100794.34;5091480;28;19912;-67
2023/06/18 01:25:18;;;;;;;;;;;;;;;31.04;16.07;100791.56;5124749;27;19912;-67
2023/06/18 01:27:43;;;;;;;;;;;;;;;30.97;16.19;100789.25;5090419;28;19939;-67
2023/06/18 01:30:09;;;;;;;;;;;;;;;30.99;16.45;100791.72;5091899;28;19916;-67
2023/06/18 01:32:36;;;;;;;;;;;;;;;31.00;16.49;100796.94;5089644;28;19916;-67
2023/06/18 01:35:02;;;;;;;;;;;;;;;31.01;16.90;100797.75;5092007;28;19922;-67
2023/06/18 01:37:36;;;;;;;;;;;;;;;30.99;16.49;100800.84;5091204;28;19916;-67
2023/06/18 01:40:27;;;;;;;;;;;;;;;30.93;16.03;100793.81;5090089;28;19981;-67
2023/06/18 01:42:59;;;;;;;;;;;;;;;30.80;16.95;100808.63;5091835;28;20473;-67
2023/06/18 01:45:28;;;;;;;;;;;;;;;30.82;16.72;100806.34;5090280;28;20273;-67
2023/06/18 01:47:59;;;;;;;;;;;;;;;30.77;16.67;100812.03;5092026;28;19916;-67
2023/06/18 01:50:26;;;;;;;;;;;;;;;30.75;17.00;100806.78;5090460;28;19924;-67
2023/06/18 01:52:51;;;;;;;;;;;;;;;30.72;16.70;100798.31;5091817;28;19912;-67
2023/06/18 01:55:17;;;;;;;;;;;;;;;30.70;16.84;100806.94;5092064;28;20365;-67
2023/06/18 01:57:43;;;;;;;;;;;;;;;30.72;17.37;100809.38;5093589;28;19927;-67
2023/06/18 02:00:09;;;;;;;;;;;;;;;30.69;17.21;100803.34;5091395;28;19916;-67
2023/06/18 02:02:34;;;;;;;;;;;;;;;30.68;17.27;100809.22;5090883;28;20293;-66
2023/06/18 02:04:59;;;;;;;;;;;;;;;30.66;17.39;100804.03;5090587;28;20012;-66
2023/06/18 02:07:25;;;;;;;;;;;;;;;30.67;16.88;100802.88;5091311;28;19955;-66
2023/06/18 02:09:50;;;;;;;;;;;;;;;30.65;17.31;100804.34;5090066;28;19920;-66
2023/06/18 02:12:15;;;;;;;;;;;;;;;30.62;17.23;100802.19;5090383;28;19912;-66
2023/06/18 02:14:41;;;;;;;;;;;;;;;30.62;17.27;100802.19;5094862;28;19939;-66
2023/06/18 02:17:06;;;;;;;;;;;;;;;30.60;17.55;100796.97;5095916;28;19964;-66
2023/06/18 02:19:31;;;;;;;;;;;;;;;30.56;17.14;100804.28;5101019;28;19911;-66
2023/06/18 02:21:57;;;;;;;;;;;;;;;30.59;17.48;100805.59;5094676;28;20470;-66
2023/06/18 02:24:23;;;;;;;;;;;;;;;30.62;17.33;100810.50;5093936;28;19927;-66
2023/06/18 02:26:48;;;;;;;;;;;;;;;30.60;17.20;100812.78;5094934;28;19916;-67
2023/06/18 02:29:13;;;;;;;;;;;;;;;30.57;17.64;100807.88;5092904;28;19912;-66
2023/06/18 02:31:38;;;;;;;;;;;;;;;30.62;17.09;100819.63;5094459;28;19923;-66
2023/06/18 02:34:04;;;;;;;;;;;;;;;30.62;16.90;100813.28;5098316;28;19938;-66
2023/06/18 02:36:32;;;;;;;;;;;;;;;30.67;16.96;100815.91;5115429;28;19931;-68
2023/06/18 02:38:57;;;;;;;;;;;;;;;30.64;17.81;100817.34;5111921;27;20435;-67
2023/06/18 02:41:22;;;;;;;;;;;;;;;30.65;17.81;100818.19;5093741;28;20003;-67
2023/06/18 02:43:49;;;;;;;;;;;;;;;30.64;17.21;100811.81;5094530;28;19935;-68
2023/06/18 02:46:15;;;;;;;;;;;;;;;30.61;17.96;100812.47;5100042;28;19996;-68
2023/06/18 02:48:42;;;;;;;;;;;;;;;30.63;17.32;100818.50;5115303;28;20069;-67
2023/06/18 02:51:08;;;;;;;;;;;;;;;30.64;17.55;100817.34;5100036;28;19995;-67
2023/06/18 02:53:33;;;;;;;;;;;;;;;30.64;17.78;100819.31;5099659;28;19923;-67
2023/06/18 02:55:58;;;;;;;;;;;;;;;30.63;17.43;100815.75;5115477;28;19915;-66
2023/06/18 02:58:28;;;;;;;;;;;;;;;30.64;17.49;100817.34;5107882;28;19972;-65
2023/06/18 03:00:54;;;;;;;;;;;;;;;30.59;17.79;100811.97;5115208;28;19920;-66
2023/06/18 03:03:19;;;;;;;;;;;;;;;30.60;17.95;100816.38;5114435;28;19916;-67
2023/06/18 03:05:45;;;;;;;;;;;;;;;30.60;17.53;100813.59;5098045;28;19919;-67
2023/06/18 03:08:11;;;;;;;;;;;;;;;30.56;18.34;100809.03;5094556;28;19912;-67
2023/06/18 03:10:36;;;;;;;;;;;;;;;30.61;17.90;100817.19;5095075;28;19926;-66
2023/06/18 03:13:01;;;;;;;;;;;;;;;30.65;18.27;100829.28;5114170;28;19937;-66
2023/06/18 03:15:26;;;;;;;;;;;;;;;30.66;18.26;100833.69;5114387;28;19922;-66
2023/06/18 03:17:52;;;;;;;;;;;;;;;30.68;17.80;100837.78;5112570;28;19965;-66
2023/06/18 03:20:18;;;;;;;;;;;;;;;30.71;18.00;100841.03;5109387;28;19953;-66
2023/06/18 03:22:43;;;;;;;;;;;;;;;30.68;17.42;100835.00;5096722;28;20300;-66
2023/06/18 03:25:08;;;;;;;;;;;;;;;30.69;17.83;100836.63;5114473;28;19942;-67
2023/06/18 03:27:34;;;;;;;;;;;;;;;30.72;17.98;100842.66;5113334;28;19922;-67
2023/06/18 03:29:59;;;;;;;;;;;;;;;30.70;18.62;100834.66;5094163;28;19912;-67
2023/06/18 03:32:24;;;;;;;;;;;;;;;30.69;18.03;100836.63;5094156;28;20344;-67
2023/06/18 03:34:50;;;;;;;;;;;;;;;30.72;17.84;100845.44;5092077;28;19963;-67
2023/06/18 03:37:17;;;;;;;;;;;;;;;30.73;18.40;100841.53;5093673;28;20345;-67
2023/06/18 03:39:42;;;;;;;;;;;;;;;30.74;18.34;100843.16;5094504;28;19969;-67
2023/06/18 03:42:08;;;;;;;;;;;;;;;30.76;18.08;100846.44;5092254;28;20551;-67
2023/06/18 03:44:33;;;;;;;;;;;;;;;30.79;18.15;100843.81;5093902;28;19916;-67
2023/06/18 03:46:58;;;;;;;;;;;;;;;30.85;18.27;100845.34;5092566;28;19912;-65
2023/06/18 03:49:24;;;;;;;;;;;;;;;30.87;18.36;100856.13;5095740;27;19938;-66
2023/06/18 03:51:49;;;;;;;;;;;;;;;30.88;18.23;100852.19;5093862;28;19920;-66
2023/06/18 03:54:14;;;;;;;;;;;;;;;30.81;18.33;100847.13;5090908;28;20010;-65
2023/06/18 03:56:40;;;;;;;;;;;;;;;30.85;18.02;100850.03;5092865;28;19911;-66
2023/06/18 03:59:05;;;;;;;;;;;;;;;30.88;17.72;100863.28;5092986;28;20046;-66
2023/06/18 04:01:31;;;;;;;;;;;;;;;30.91;17.95;100857.13;5112929;28;19912;-66
2023/06/18 04:03:56;;;;;;;;;;;;;;;30.94;18.85;100856.47;5114176;28;19911;-66
2023/06/18 04:06:22;;;;;;;;;;;;;;;30.91;18.18;100850.78;5111850;28;19992;-66
2023/06/18 04:08:48;;;;;;;;;;;;;;;30.92;17.86;100850.44;5103016;28;19912;-66
2023/06/18 04:11:13;;;;;;;;;;;;;;;30.93;18.01;100860.41;5092927;28;19918;-67
2023/06/18 04:13:38;;;;;;;;;;;;;;;30.94;18.25;100863.97;5091488;28;19912;-66
2023/06/18 04:16:04;;;;;;;;;;;;;;;30.97;18.36;100861.38;5093352;28;19928;-66
2023/06/18 04:18:29;;;;;;;;;;;;;;;31.01;18.51;100867.91;5090457;28;19912;-66
2023/06/18 04:20:55;;;;;;;;;;;;;;;31.05;17.82;100874.47;5101641;28;19919;-66
2023/06/18 04:23:20;;;;;;;;;;;;;;;31.11;18.29;100879.84;5093054;28;19912;-66
2023/06/18 04:25:45;;;;;;;;;;;;;;;31.10;18.03;100886.56;5091985;28;20006;-65
2023/06/18 04:28:10;;;;;;;;;;;;;;;31.14;18.28;100885.56;5092293;28;19958;-65
2023/06/18 04:30:36;;;;;;;;;;;;;;;31.16;18.18;100888.84;5091704;28;19912;-65
2023/06/18 04:33:01;;;;;;;;;;;;;;;31.13;18.02;100892.28;5093294;28;19912;-65
2023/06/18 04:35:26;;;;;;;;;;;;;;;31.19;18.03;100902.09;5092673;28;19916;-66
2023/06/18 04:37:52;;;;;;;;;;;;;;;31.15;18.38;100900.25;5090597;28;19920;-66
2023/06/18 04:40:18;;;;;;;;;;;;;;;31.11;18.42;100902.88;5093063;28;19965;-66
2023/06/18 04:42:43;;;;;;;;;;;;;;;31.11;18.90;100897.34;5091253;28;20002;-67
2023/06/18 04:45:09;;;;;;;;;;;;;;;31.09;18.76;100896.00;5093057;28;19997;-67
2023/06/18 04:47:34;;;;;;;;;;;;;;;31.12;18.76;100900.91;5112080;28;19916;-66
2023/06/18 04:50:01;;;;;;;;;;;;;;;31.08;18.55;100913.81;5090600;27;20329;-66
2023/06/18 04:52:26;;;;;;;;;;;;;;;31.08;18.24;100900.75;5092761;28;19999;-66
2023/06/18 04:54:54;;;;;;;;;;;;;;;31.10;18.63;100903.22;5092660;28;20019;-66
2023/06/18 04:57:20;;;;;;;;;;;;;;;31.10;18.39;100908.75;5112087;28;19918;-65
2023/06/18 04:59:46;;;;;;;;;;;;;;;31.10;18.12;100912.34;5111368;28;19911;-65
2023/06/18 05:02:11;;;;;;;;;;;;;;;31.16;18.40;100905.50;5111069;28;19912;-65
2023/06/18 05:04:36;;;;;;;;;;;;;;;31.27;18.35;100915.16;5112799;28;19912;-65
2023/06/18 05:07:02;;;;;;;;;;;;;;;31.30;18.62;100922.03;5104088;28;19916;-65
2023/06/18 05:09:28;;;;;;;;;;;;;;;31.33;18.21;100917.78;5095324;28;19912;-66
2023/06/18 05:11:54;;;;;;;;;;;;;;;31.37;18.24;100916.81;5091802;28;19912;-66
2023/06/18 05:14:19;;;;;;;;;;;;;;;31.44;18.04;100925.50;5104064;28;19920;-66
2023/06/18 05:16:45;;;;;;;;;;;;;;;31.52;18.10;100926.69;5112757;28;19912;-66
2023/06/18 05:19:10;;;;;;;;;;;;;;;31.59;18.36;100938.13;5105921;28;19915;-66
2023/06/18 05:21:35;;;;;;;;;;;;;;;31.59;18.21;100928.94;5090767;28;20316;-66
2023/06/18 05:24:01;;;;;;;;;;;;;;;31.68;18.05;100935.34;5091677;28;19912;-66
2023/06/18 05:26:26;;;;;;;;;;;;;;;31.66;18.66;100932.06;5089175;28;19959;-66
2023/06/18 05:28:51;;;;;;;;;;;;;;;31.66;17.90;100928.47;5091441;28;20042;-66
2023/06/18 05:31:17;;;;;;;;;;;;;;;31.66;18.51;100926.50;5094209;28;19911;-66
2023/06/18 05:33:42;;;;;;;;;;;;;;;31.59;18.33;100927.00;5091531;28;20271;-66
2023/06/18 05:36:07;;;;;;;;;;;;;;;31.68;18.45;100924.22;5091847;28;19916;-66
2023/06/18 05:38:32;;;;;;;;;;;;;;;31.71;17.71;100928.31;5090053;28;20037;-66
2023/06/18 05:40:58;;;;;;;;;;;;;;;31.80;18.55;100926.38;5091584;28;19919;-66
2023/06/18 05:43:23;;;;;;;;;;;;;;;31.86;17.86;100925.06;5106809;28;20326;-66
2023/06/18 05:45:49;;;;;;;;;;;;;;;31.92;18.36;100925.72;5090913;28;19912;-66
2023/06/18 05:48:14;;;;;;;;;;;;;;;31.99;18.17;100932.41;5091877;28;19918;-66
2023/06/18 05:50:40;;;;;;;;;;;;;;;32.04;18.37;100934.25;5093865;28;19921;-66
2023/06/18 05:53:05;;;;;;;;;;;;;;;32.06;17.84;100950.56;5095529;28;19965;-66
2023/06/18 05:55:30;;;;;;;;;;;;;;;32.13;18.53;100956.44;5095861;28;20371;-66
2023/06/18 05:57:56;;;;;;;;;;;;;;;32.16;17.89;100945.50;5094214;28;19958;-65
2023/06/18 06:00:21;;;;;;;;;;;;;;;32.20;18.45;100948.44;5096265;28;19943;-66
2023/06/18 06:02:46;;;;;;;;;;;;;;;32.25;18.19;100948.28;5101342;28;20365;-67
2023/06/18 06:05:12;;;;;;;;;;;;;;;32.22;18.40;100949.75;5116505;28;19954;-66
2023/06/18 06:07:37;;;;;;;;;;;;;;;32.22;18.70;100966.44;5115050;28;19919;-65
2023/06/18 06:10:03;;;;;;;;;;;;;;;32.26;18.15;100960.19;5094488;28;19912;-65
2023/06/18 06:12:28;;;;;;;;;;;;;;;32.31;18.33;100960.84;5092725;28;19916;-65
2023/06/18 06:14:54;;;;;;;;;;;;;;;32.34;17.88;100971.31;5095666;28;19951;-65
2023/06/18 06:17:19;;;;;;;;;;;;;;;32.38;18.21;100969.50;5095294;28;19912;-65
2023/06/18 06:19:45;;;;;;;;;;;;;;;32.40;17.83;100974.75;5102285;28;19912;-65
2023/06/18 06:22:10;;;;;;;;;;;;;;;32.35;17.92;100974.91;5092666;28;19912;-65
2023/06/18 06:24:36;;;;;;;;;;;;;;;32.38;18.27;100977.03;5093729;28;19969;-66
2023/06/18 06:27:01;;;;;;;;;;;;;;;32.48;17.62;100975.88;5092628;28;19912;-65
2023/06/18 06:29:26;;;;;;;;;;;;;;;32.49;18.04;100986.66;5094523;28;20257;-66
2023/06/18 06:31:51;;;;;;;;;;;;;;;32.53;18.16;100984.84;5095592;28;19912;-66
2023/06/18 06:34:17;;;;;;;;;;;;;;;32.60;17.98;100982.44;5092191;28;19916;-66
2023/06/18 06:36:43;;;;;;;;;;;;;;;32.69;17.76;100995.47;5095365;28;19916;-66
2023/06/18 06:39:08;;;;;;;;;;;;;;;32.59;17.99;100997.47;5100637;28;19920;-66
2023/06/18 06:41:34;;;;;;;;;;;;;;;32.57;18.30;100993.34;5095303;28;19920;-66
2023/06/18 06:43:59;;;;;;;;;;;;;;;32.56;17.96;101000.91;5094904;28;19918;-66
2023/06/18 06:46:24;;;;;;;;;;;;;;;32.62;17.79;101009.91;5093425;28;19958;-66
2023/06/18 06:48:50;;;;;;;;;;;;;;;32.68;18.09;101013.34;5094072;28;19912;-67
2023/06/18 06:51:15;;;;;;;;;;;;;;;32.69;17.61;101013.00;5092233;28;19997;-67
2023/06/18 06:53:40;;;;;;;;;;;;;;;32.75;17.56;101025.59;5094885;28;19982;-67
2023/06/18 06:56:05;;;;;;;;;;;;;;;32.85;17.60;101031.94;5094552;28;19927;-67
2023/06/18 06:58:30;;;;;;;;;;;;;;;32.87;17.79;101024.88;5092759;28;20427;-67
2023/06/18 07:00:56;;;;;;;;;;;;;;;32.87;17.61;101036.03;5094873;28;19944;-67
2023/06/18 07:03:21;;;;;;;;;;;;;;;32.94;17.97;101043.88;5094055;28;19970;-66
2023/06/18 07:05:46;;;;;;;;;;;;;;;32.96;17.64;101045.16;5093732;28;19912;-65
2023/06/18 07:08:12;;;;;;;;;;;;;;;32.99;17.73;101044.50;5094503;28;19912;-65
2023/06/18 07:10:37;;;;;;;;;;;;;;;33.01;17.59;101043.38;5092981;28;19912;-65
2023/06/18 07:13:02;;;;;;;;;;;;;;;33.00;17.84;101045.31;5093969;28;20331;-66
2023/06/18 07:15:27;;;;;;;;;;;;;;;33.08;17.85;101046.44;5093598;28;19916;-66
2023/06/18 07:17:53;;;;;;;;;;;;;;;33.10;18.02;101044.16;5111500;28;19916;-66
2023/06/18 07:20:18;;;;;;;;;;;;;;;33.15;17.96;101047.63;5110648;28;19958;-66
2023/06/18 07:22:43;;;;;;;;;;;;;;;33.17;17.53;101039.75;5101916;28;19918;-66
2023/06/18 07:25:09;;;;;;;;;;;;;;;33.19;17.66;101042.16;5114923;28;19918;-66
2023/06/18 07:27:34;;;;;;;;;;;;;;;33.24;17.82;101044.78;5113511;27;20276;-66
2023/06/18 07:30:00;;;;;;;;;;;;;;;33.29;17.87;101047.38;5140625;27;20356;-66
2023/06/18 07:32:25;;;;;;;;;;;;;;;33.38;17.96;101047.34;5114354;28;19918;-66
2023/06/18 07:34:50;;;;;;;;;;;;;;;33.33;18.24;101050.31;5112065;28;19920;-66
2023/06/18 07:37:16;;;;;;;;;;;;;;;33.30;17.84;101046.25;5113560;28;20321;-66
2023/06/18 07:39:41;;;;;;;;;;;;;;;33.36;17.60;101047.69;5111872;28;19918;-66
2023/06/18 07:42:06;;;;;;;;;;;;;;;33.49;17.89;101053.38;5094211;28;19919;-67
2023/06/18 07:44:32;;;;;;;;;;;;;;;33.55;17.82;101047.25;5094056;28;19953;-67
2023/06/18 07:46:57;;;;;;;;;;;;;;;33.58;17.69;101048.53;5102271;28;19942;-67
2023/06/18 07:49:22;;;;;;;;;;;;;;;33.74;17.61;101048.81;5113430;28;19916;-66
2023/06/18 07:51:48;;;;;;;;;;;;;;;33.70;17.93;101051.47;5093536;28;19926;-66
2023/06/18 07:54:13;;;;;;;;;;;;;;;33.80;17.79;101049.44;5092249;28;20216;-66
2023/06/18 07:56:39;;;;;;;;;;;;;;;33.92;17.89;101043.97;5094000;28;20564;-66
2023/06/18 07:59:04;;;;;;;;;;;;;;;34.04;17.67;101055.16;5131217;27;19920;-68
2023/06/18 08:01:29;;;;;;;;;;;;;;;34.09;17.77;101052.19;5093761;28;19912;-68
2023/06/18 08:03:54;;;;;;;;;;;;;;;34.09;17.77;101043.81;5093491;28;19918;-67
2023/06/18 08:06:20;;;;;;;;;;;;;;;34.09;17.91;101049.41;5091626;28;19912;-67
2023/06/18 08:08:48;;;;;;;;;;;;;;;34.10;17.72;101044.63;5092577;28;20256;-67
2023/06/18 08:11:13;;;;;;;;;;;;;;;34.10;17.71;101045.47;5091347;28;19915;-67
2023/06/18 08:13:39;;;;;;;;;;;;;;;34.10;17.65;101051.03;5092169;28;19918;-66
2023/06/18 08:16:04;;;;;;;;;;;;;;;34.10;18.02;101044.63;5093644;28;19931;-66
2023/06/18 08:18:29;;;;;;;;;;;;;;;34.15;17.93;101044.44;5090388;28;19977;-66
2023/06/18 08:20:55;;;;;;;;;;;;;;;34.18;17.94;101045.78;5100804;28;19916;-66
2023/06/18 08:23:20;;;;;;;;;;;;;;;34.29;18.32;101050.59;5090910;28;19947;-66
2023/06/18 08:25:45;;;;;;;;;;;;;;;34.32;18.13;101040.72;5112675;28;19938;-66
2023/06/18 08:28:11;;;;;;;;;;;;;;;34.38;18.05;101047.75;5112703;28;19971;-66
2023/06/18 08:30:36;;;;;;;;;;;;;;;34.44;18.04;101056.72;5101359;28;19977;-66
2023/06/18 08:33:03;;;;;;;;;;;;;;;34.42;18.06;101051.47;5112182;28;19965;-66
2023/06/18 08:35:28;;;;;;;;;;;;;;;34.39;17.95;101051.34;5105479;28;20310;-66
2023/06/18 08:37:53;;;;;;;;;;;;;;;34.44;18.05;101053.91;5091800;28;19918;-66
2023/06/18 08:40:21;;;;;;;;;;;;;;;34.52;17.78;101045.44;5092088;28;19912;-66
2023/06/18 08:42:47;;;;;;;;;;;;;;;34.50;18.03;101044.19;5090830;28;19923;-66
2023/06/18 08:45:12;;;;;;;;;;;;;;;34.55;17.99;101054.28;5092840;28;19916;-66
2023/06/18 08:47:39;;;;;;;;;;;;;;;34.55;17.95;101054.28;5091346;28;19912;-66
2023/06/18 08:50:06;;;;;;;;;;;;;;;34.49;18.04;101053.69;5091235;28;20304;-66
2023/06/18 08:52:32;;;;;;;;;;;;;;;34.51;18.14;101055.00;5092848;28;20404;-67
2023/06/18 08:55:02;;;;;;;;;;;;;;;34.58;17.99;101042.44;5090655;28;20414;-67
2023/06/18 08:57:30;;;;;;;;;;;;;;;34.59;18.06;101058.84;5091933;28;19916;-67
2023/06/18 08:59:57;;;;;;;;;;;;;;;34.62;17.99;101060.13;5091265;28;19912;-67
2023/06/18 09:02:24;;;;;;;;;;;;;;;34.61;17.91;101052.94;5110249;28;19911;-66
2023/06/18 09:04:49;;;;;;;;;;;;;;;34.59;17.97;101052.47;5112851;28;19958;-66
2023/06/18 09:07:15;;;;;;;;;;;;;;;34.62;17.87;101048.97;5100271;28;19959;-66
2023/06/18 09:09:40;;;;;;;;;;;;;;;34.68;17.88;101044.84;5092234;28;19938;-66
2023/06/18 09:12:06;;;;;;;;;;;;;;;34.67;17.67;101051.56;5090684;28;19912;-66
2023/06/18 09:14:31;;;;;;;;;;;;;;;34.70;17.91;101046.13;5110005;28;20539;-66
2023/06/18 09:16:57;;;;;;;;;;;;;;;34.76;17.98;101043.94;5112618;28;19911;-66
2023/06/18 09:19:23;;;;;;;;;;;;;;;34.81;18.00;101042.94;5100088;28;19916;-66
2023/06/18 09:21:48;;;;;;;;;;;;;;;34.85;18.08;101039.09;5095342;27;19916;-66
2023/06/18 09:24:20;;;;;;;;;;;;;;;34.94;17.66;101047.38;5091780;28;19915;-66
2023/06/18 09:27:03;;;;;;;;;;;;;;;35.02;18.05;101054.00;5090981;28;20387;-66
2023/06/18 09:29:31;;;;;;;;;;;;;;;35.14;17.50;101054.03;5111826;28;20006;-66
2023/06/18 09:31:56;;;;;;;;;;;;;;;35.29;17.54;101055.38;5109264;28;20408;-66
2023/06/18 09:34:22;;;;;;;;;;;;;;;35.43;17.55;101057.81;5111181;28;19999;-66
2023/06/18 09:36:49;;;;;;;;;;;;;;;35.50;17.65;101055.25;5110416;28;20759;-67
2023/06/18 09:39:21;;;;;;;;;;;;;;;35.61;17.08;101050.81;5090725;28;20433;-66
2023/06/18 09:41:47;;;;;;;;;;;;;;;35.76;17.31;101054.91;5091876;28;19916;-67
2023/06/18 09:44:16;;;;;;;;;;;;;;;35.90;17.32;101054.53;5101056;28;20000;-67
2023/06/18 09:46:46;;;;;;;;;;;;;;;36.07;17.49;101055.44;5112388;28;19919;-67
2023/06/18 09:49:16;;;;;;;;;;;;;;;36.12;16.81;101046.81;5103617;28;19920;-66
2023/06/18 09:51:41;;;;;;;;;;;;;;;36.19;17.18;101052.63;5091829;28;19927;-66
2023/06/18 09:54:07;;;;;;;;;;;;;;;36.27;16.72;101051.66;5091236;28;20260;-67
2023/06/18 09:56:33;;;;;;;;;;;;;;;36.35;17.10;101038.69;5102372;28;19916;-67
2023/06/18 09:58:59;;;;;;;;;;;;;;;36.46;16.57;101042.66;5111786;28;20476;-67
2023/06/18 10:01:27;;;;;;;;;;;;;;;36.57;16.51;101048.50;5111236;28;20807;-67
2023/06/18 10:03:52;;;;;;;;;;;;;;;36.68;16.41;101048.84;5100316;28;19919;-66
2023/06/18 10:06:19;;;;;;;;;;;;;;;36.75;16.86;101049.84;5091805;28;19919;-69
2023/06/18 10:08:46;;;;;;;;;;;;;;;36.84;16.25;101054.50;5089589;28;19999;-66
2023/06/18 10:11:12;;;;;;;;;;;;;;;36.84;16.72;101054.50;5091825;28;20304;-71
2023/06/18 10:13:43;;;;;;;;;;;;;;;36.69;16.34;101062.50;5093721;28;19918;-69
2023/06/18 10:16:09;;;;;;;;;;;;;;;36.64;16.38;101059.91;5091188;28;19980;-68
2023/06/18 10:18:34;;;;;;;;;;;;;;;36.57;16.88;101059.72;5091368;28;19913;-68
2023/06/18 10:21:04;;;;;;;;;;;;;;;36.49;16.93;101055.91;5091579;28;20440;-68
2023/06/18 10:23:30;;;;;;;;;;;;;;;36.36;16.58;101051.53;5098057;28;20331;-68
2023/06/18 10:25:56;;;;;;;;;;;;;;;36.34;17.15;101051.06;5091371;28;19916;-68
2023/06/18 10:28:21;;;;;;;;;;;;;;;36.29;16.65;101045.72;5090223;28;19912;-68
2023/06/18 10:30:47;;;;;;;;;;;;;;;36.27;16.99;101046.06;5091481;28;19949;-68
2023/06/18 10:33:12;;;;;;;;;;;;;;;36.31;16.68;101040.59;5089799;28;19916;-68
2023/06/18 10:35:39;;;;;;;;;;;;;;;36.12;16.76;101030.03;5090745;28;19951;-67
2023/06/18 10:38:05;;;;;;;;;;;;;;;36.13;16.76;101028.88;5093529;28;20000;-68
2023/06/18 10:40:36;;;;;;;;;;;;;;;36.14;17.24;101024.88;5094851;28;19916;-68
2023/06/18 10:43:09;;;;;;;;;;;;;;;36.21;16.68;101027.94;5095148;28;19912;-68
2023/06/18 10:45:34;;;;;;;;;;;;;;;36.28;17.13;101038.53;5093203;28;20439;-68
2023/06/18 10:48:16;;;;;;;;;;;;;;;36.25;17.02;101034.44;5094580;28;19998;-69
2023/06/18 10:51:01;;;;;;;;;;;;;;;36.18;17.32;101026.66;5092862;28;20013;-68
2023/06/18 10:53:27;;;;;;;;;;;;;;;36.23;16.80;101017.19;5094772;28;20326;-69
2023/06/18 10:55:58;;;;;;;;;;;;;;;36.32;16.86;101017.84;5093967;28;19920;-68
2023/06/18 10:58:33;;;;;;;;;;;;;;;36.40;17.16;101019.69;5093073;28;20261;-68
2023/06/18 11:00:59;;;;;;;;;;;;;;;36.37;17.07;101036.38;5094740;28;19912;-68
2023/06/18 11:03:32;;;;;;;;;;;;;;;36.29;16.71;101035.34;5093420;28;19919;-68
2023/06/18 11:06:00;;;;;;;;;;;;;;;36.22;16.79;101044.34;5094391;28;19912;-68
2023/06/18 11:08:27;;;;;;;;;;;;;;;36.18;17.18;101051.00;5092169;28;19916;-68
2023/06/18 11:11:00;;;;;;;;;;;;;;;36.00;17.42;101048.47;5093307;28;19912;-68
2023/06/18 11:13:28;;;;;;;;;;;;;;;35.87;17.50;101049.66;5093377;28;19986;-68
2023/06/18 11:15:57;;;;;;;;;;;;;;;35.78;17.74;101063.75;5098324;28;19920;-68
2023/06/18 11:18:25;;;;;;;;;;;;;;;35.72;18.06;101062.38;5113125;28;20487;-68
2023/06/18 11:20:51;;;;;;;;;;;;;;;35.71;17.69;101048.75;5104407;28;19993;-69
2023/06/18 11:23:18;;;;;;;;;;;;;;;35.71;18.24;101057.13;5144403;27;20303;-68
2023/06/18 11:25:44;;;;;;;;;;;;;;;35.77;17.64;101055.72;5114675;28;19961;-68
2023/06/18 11:28:12;;;;;;;;;;;;;;;35.76;17.96;101045.72;5103747;28;19919;-68
2023/06/18 11:30:39;;;;;;;;;;;;;;;35.77;17.96;101056.56;5094481;28;20311;-68
2023/06/18 11:33:04;;;;;;;;;;;;;;;35.84;17.98;101053.97;5093986;28;19920;-68
2023/06/18 11:35:33;;;;;;;;;;;;;;;35.94;17.70;101055.47;5092764;28;20005;-68
2023/06/18 11:37:58;;;;;;;;;;;;;;;36.08;17.59;101051.47;5093267;28;19912;-70
2023/06/18 11:40:24;;;;;;;;;;;;;;;36.20;17.76;101052.28;5092617;28;20400;-69
2023/06/18 11:42:51;;;;;;;;;;;;;;;36.09;17.36;101051.13;5094315;28;19920;-68
2023/06/18 11:45:17;;;;;;;;;;;;;;;36.06;17.46;101049.03;5093989;28;19935;-67
2023/06/18 11:47:49;;;;;;;;;;;;;;;36.02;17.70;101050.91;5091097;28;19912;-67
2023/06/18 11:50:22;;;;;;;;;;;;;;;35.92;17.95;101052.22;5093406;28;20280;-68
2023/06/18 11:52:47;;;;;;;;;;;;;;;35.82;18.24;101049.91;5091841;28;20368;-66
2023/06/18 11:55:14;;;;;;;;;;;;;;;35.76;18.15;101054.09;5093868;28;19966;-67
2023/06/18 11:57:39;;;;;;;;;;;;;;;35.80;18.67;101063.41;5093114;28;19912;-67
2023/06/18 12:00:08;;;;;;;;;;;;;;;35.64;18.51;101069.69;5109962;28;19938;-66
2023/06/18 12:02:34;;;;;;;;;;;;;;;35.52;19.08;101072.47;5114415;28;19961;-66
2023/06/18 12:05:02;;;;;;;;;;;;;;;35.31;18.97;101068.97;5103950;28;19912;-67
2023/06/18 12:07:28;;;;;;;;;;;;;;;35.15;18.94;101061.25;5093117;28;19916;-67
2023/06/18 12:09:55;;;;;;;;;;;;;;;35.14;19.70;101064.38;5092300;28;19916;-66
2023/06/18 12:12:37;;;;;;;;;;;;;;;35.08;19.78;101072.16;5109149;28;19911;-67
2023/06/18 12:15:03;;;;;;;;;;;;;;;34.95;19.40;101067.72;5114019;28;19951;-67
2023/06/18 12:17:47;;;;;;;;;;;;;;;34.86;19.55;101067.81;5100662;28;20700;-66
2023/06/18 12:20:13;;;;;;;;;;;;;;;34.85;19.78;101069.78;5101146;28;19951;-66
2023/06/18 12:22:42;;;;;;;;;;;;;;;34.72;19.05;101068.13;5093626;28;19997;-66
2023/06/18 12:25:08;;;;;;;;;;;;;;;34.64;19.27;101068.97;5073095;28;19919;-66
2023/06/18 12:27:34;;;;;;;;;;;;;;;34.63;19.18;101078.53;5072533;28;20011;-67
2023/06/18 12:30:03;;;;;;;;;;;;;;;34.50;19.25;101072.88;5088053;28;19912;-66
2023/06/18 12:32:29;;;;;;;;;;;;;;;34.47;19.51;101081.94;5092657;28;19923;-66